Time;durP1;ratioP1;P1;durP2;ratioP2;P2;SDS_P1;SDS_P2;PMS_P1;PMS_P2;Temp;Humidity;BMP_temperature;BMP_pressure;BME280_temperature;BME280_humidity;BME280_pressure;Samples;Min_cycle;Max_cycle;Signal;HPM_P1;HPM_P2
2023/05/13 00:02:41;;;;;;;11.53;8.37;;;;;11.40;101439.00;;;;9804302;29;20305;-82
2023/05/13 00:07:43;;;;;;;12.43;9.33;;;;;11.30;101436.00;;;;9796040;29;20832;-78
2023/05/13 00:12:44;;;;;;;10.80;9.67;;;;;11.30;101442.00;;;;9796528;29;20247;-79
2023/05/13 00:17:45;;;;;;;11.90;10.80;;;;;11.20;101448.00;;;;9794068;29;20235;-78
2023/05/13 00:22:47;;;;;;;11.43;10.27;;;;;11.10;101452.00;;;;9801068;29;20795;-78
2023/05/13 00:27:48;;;;;;;13.57;11.27;;;;;11.10;101448.00;;;;9788387;29;20257;-82
2023/05/13 00:32:50;;;;;;;16.87;9.90;;;;;11.00;101450.00;;;;9817823;29;20315;-81
2023/05/13 00:37:52;;;;;;;13.47;12.07;;;;;11.00;101449.00;;;;9821579;29;20578;-81
2023/05/13 00:42:54;;;;;;;13.53;11.10;;;;;10.90;101440.00;;;;9823144;29;20772;-78
2023/05/13 00:47:56;;;;;;;15.47;11.93;;;;;10.90;101443.00;;;;9803354;29;20999;-78
2023/05/13 00:52:59;;;;;;;13.77;11.60;;;;;10.80;101434.00;;;;9819675;29;20253;-77
2023/05/13 00:58:00;;;;;;;15.03;13.47;;;;;10.80;101436.00;;;;9819545;29;21201;-78
2023/05/13 01:03:07;;;;;;;15.10;13.53;;;;;10.80;101429.00;;;;9818641;29;20241;-79
2023/05/13 01:08:32;;;;;;;14.30;12.97;;;;;10.80;101430.00;;;;9793509;29;20224;-78
2023/05/13 01:13:38;;;;;;;17.57;12.73;;;;;10.80;101430.00;;;;9799562;29;20255;-78
2023/05/13 01:18:44;;;;;;;16.57;13.93;;;;;10.80;101438.00;;;;9781726;29;20905;-78
2023/05/13 01:23:46;;;;;;;15.63;14.03;;;;;10.80;101435.00;;;;9813355;29;21821;-80
2023/05/13 01:28:49;;;;;;;18.17;14.13;;;;;10.80;101435.00;;;;9789500;29;20215;-79
2023/05/13 01:33:52;;;;;;;16.93;15.17;;;;;10.80;101427.00;;;;9778292;29;20243;-77
2023/05/13 01:38:55;;;;;;;19.73;16.57;;;;;10.80;101437.00;;;;9792217;29;20289;-80
2023/05/13 01:43:56;;;;;;;18.57;16.67;;;;;10.80;101442.00;;;;9808381;29;20687;-76
2023/05/13 01:48:58;;;;;;;18.53;16.53;;;;;10.90;101441.00;;;;9795390;29;20267;-77
2023/05/13 01:54:00;;;;;;;26.47;19.13;;;;;10.90;101446.00;;;;9788502;29;20651;-78
2023/05/13 01:59:02;;;;;;;25.07;17.77;;;;;10.90;101449.00;;;;9798778;29;20619;-78
2023/05/13 02:04:04;;;;;;;22.73;19.70;;;;;10.90;101439.00;;;;9801113;29;20243;-78
2023/05/13 02:09:06;;;;;;;21.83;19.10;;;;;10.90;101447.00;;;;9776000;29;20836;-77
2023/05/13 02:14:08;;;;;;;23.23;20.77;;;;;10.90;101457.00;;;;9801265;29;20532;-79
2023/05/13 02:19:09;;;;;;;23.80;20.27;;;;;10.90;101453.00;;;;9785370;29;20603;-78
2023/05/13 02:24:12;;;;;;;25.87;22.03;;;;;10.90;101448.00;;;;9834552;29;20219;-81
2023/05/13 02:29:13;;;;;;;28.03;20.30;;;;;10.90;101451.00;;;;9811119;29;21082;-80
2023/05/13 02:34:15;;;;;;;27.43;21.37;;;;;11.00;101456.00;;;;9804944;29;20832;-79
2023/05/13 02:39:17;;;;;;;24.73;18.60;;;;;11.00;101457.00;;;;9790848;29;20370;-78
2023/05/13 02:44:18;;;;;;;21.40;18.47;;;;;11.00;101453.00;;;;9801116;29;20323;-78
2023/05/13 02:49:20;;;;;;;28.03;20.93;;;;;11.00;101454.00;;;;9798768;29;20622;-77
2023/05/13 02:54:22;;;;;;;27.47;20.23;;;;;10.90;101457.00;;;;9802766;29;21319;-82
2023/05/13 02:59:24;;;;;;;25.07;21.00;;;;;10.90;101440.00;;;;9780180;29;20234;-78
2023/05/13 03:04:26;;;;;;;27.83;21.70;;;;;10.90;101453.00;;;;9816383;29;20234;-78
2023/05/13 03:09:27;;;;;;;29.53;20.63;;;;;10.90;101446.00;;;;9779066;29;20470;-79
2023/05/13 03:14:29;;;;;;;25.90;20.87;;;;;10.90;101443.00;;;;9815931;29;20238;-80
2023/05/13 03:19:32;;;;;;;30.47;22.40;;;;;10.90;101450.00;;;;9793473;29;20258;-80
2023/05/13 03:24:33;;;;;;;27.37;21.50;;;;;10.90;101457.00;;;;9802597;29;20219;-77
2023/05/13 03:29:36;;;;;;;26.27;22.57;;;;;10.90;101458.00;;;;9777646;29;20228;-77
2023/05/13 03:34:37;;;;;;;24.90;22.03;;;;;10.80;101446.00;;;;9800465;29;20251;-78
2023/05/13 03:39:39;;;;;;;26.90;23.30;;;;;10.70;101455.00;;;;9763893;29;20231;-80
2023/05/13 03:44:41;;;;;;;27.83;23.03;;;;;10.60;101455.00;;;;9791117;29;20284;-77
2023/05/13 03:49:46;;;;;;;26.77;23.10;;;;;10.50;101455.00;;;;9797256;29;20674;-77
2023/05/13 03:54:48;;;;;;;29.40;23.83;;;;;10.40;101458.00;;;;9799386;29;20243;-79
2023/05/13 03:59:49;;;;;;;25.43;22.17;;;;;10.40;101463.00;;;;9800653;29;20714;-77
2023/05/13 04:04:53;;;;;;;24.50;21.07;;;;;10.40;101459.00;;;;9797684;29;20288;-80
2023/05/13 04:09:54;;;;;;;25.23;21.60;;;;;10.40;101460.00;;;;9830398;29;20231;-78
2023/05/13 04:14:56;;;;;;;26.97;24.07;;;;;10.40;101456.00;;;;9844336;29;20328;-82
2023/05/13 04:19:58;;;;;;;26.47;22.13;;;;;10.50;101462.00;;;;9830071;29;20235;-81
2023/05/13 04:24:59;;;;;;;26.87;20.77;;;;;10.60;101472.00;;;;9837531;29;20234;-81
2023/05/13 04:30:01;;;;;;;27.00;20.47;;;;;10.60;101484.00;;;;9824831;29;20244;-80
2023/05/13 04:35:07;;;;;;;23.77;21.10;;;;;10.70;101475.00;;;;9818964;29;20239;-81
2023/05/13 04:40:10;;;;;;;25.73;21.93;;;;;10.80;101484.00;;;;9814073;29;20565;-82
2023/05/13 04:45:11;;;;;;;25.10;21.47;;;;;10.90;101485.00;;;;9837018;29;20228;-79
2023/05/13 04:50:13;;;;;;;25.97;21.97;;;;;11.00;101490.00;;;;9844039;29;20481;-81
2023/05/13 04:55:15;;;;;;;26.50;22.73;;;;;11.20;101489.00;;;;9828905;29;20296;-79
2023/05/13 05:00:17;;;;;;;28.10;21.80;;;;;11.40;101498.00;;;;9780489;29;21900;-76
2023/05/13 05:05:21;;;;;;;27.23;23.60;;;;;11.70;101493.00;;;;9787562;29;21869;-77
2023/05/13 05:10:23;;;;;;;26.30;20.60;;;;;11.70;101504.00;;;;9800590;29;20873;-81
2023/05/13 05:15:32;;;;;;;24.57;21.43;;;;;11.60;101510.00;;;;9791233;29;20258;-78
2023/05/13 05:20:37;;;;;;;25.70;20.50;;;;;11.70;101521.00;;;;9809926;29;20651;-78
2023/05/13 05:25:41;;;;;;;28.03;23.57;;;;;11.90;101524.00;;;;9803057;29;20227;-79
2023/05/13 05:30:45;;;;;;;28.70;23.70;;;;;12.50;101523.00;;;;9808654;29;20242;-80
2023/05/13 05:35:53;;;;;;;25.17;22.27;;;;;13.00;101514.00;;;;9814286;29;20250;-80
2023/05/13 05:40:56;;;;;;;21.93;19.63;;;;;13.50;101520.00;;;;9794740;29;22416;-79
2023/05/13 05:45:57;;;;;;;20.67;18.13;;;;;14.10;101517.00;;;;9805286;29;20242;-78
2023/05/13 05:50:59;;;;;;;17.13;15.23;;;;;14.50;101516.00;;;;9801180;29;20568;-79
2023/05/13 05:56:05;;;;;;;14.98;13.40;;;;;14.70;101521.00;;;;9821577;29;20590;-79
2023/05/13 06:01:07;;;;;;;15.50;13.90;;;;;14.60;101526.00;;;;9788768;29;20226;-78
2023/05/13 06:06:08;;;;;;;13.40;12.15;;;;;14.50;101531.00;;;;9776022;29;21857;-76
2023/05/13 06:11:10;;;;;;;13.77;12.45;;;;;14.70;101547.00;;;;9795455;29;20219;-81
2023/05/13 06:16:11;;;;;;;12.82;11.55;;;;;14.80;101543.00;;;;9808376;29;20734;-79
2023/05/13 06:21:13;;;;;;;14.23;10.95;;;;;15.40;101546.00;;;;9796107;29;20314;-78
2023/05/13 06:26:14;;;;;;;11.35;10.10;;;;;16.30;101542.00;;;;9804849;29;20227;-81
2023/05/13 06:31:16;;;;;;;11.55;10.45;;;;;17.10;101544.00;;;;9820710;29;20223;-79
2023/05/13 06:36:18;;;;;;;12.38;9.75;;;;;17.80;101538.00;;;;9803587;29;20928;-80
2023/05/13 06:41:20;;;;;;;9.38;8.48;;;;;18.10;101537.00;;;;9817621;29;20239;-81
2023/05/13 06:46:23;;;;;;;11.77;8.07;;;;;18.30;101524.00;;;;9791793;29;20622;-80
2023/05/13 06:51:26;;;;;;;9.85;8.32;;;;;18.30;101530.00;;;;9779975;29;20726;-80
2023/05/13 06:56:28;;;;;;;8.90;8.05;;;;;18.20;101521.00;;;;9784209;29;20231;-82
2023/05/13 07:01:30;;;;;;;10.45;8.18;;;;;18.60;101531.00;;;;9804492;29;22008;-80
2023/05/13 07:06:32;;;;;;;8.13;7.35;;;;;19.30;101525.00;;;;9789352;29;20292;-80
2023/05/13 07:11:33;;;;;;;9.52;7.47;;;;;20.20;101523.00;;;;9813779;29;20324;-81
2023/05/13 07:16:34;;;;;;;11.18;8.05;;;;;21.10;101530.00;;;;9801528;29;20566;-78
2023/05/13 07:21:36;;;;;;;8.63;7.13;;;;;21.70;101522.00;;;;9783707;29;20246;-83
2023/05/13 07:26:38;;;;;;;8.50;7.13;;;;;21.70;101520.00;;;;9802284;29;20231;-81
2023/05/13 07:31:40;;;;;;;7.95;6.78;;;;;21.50;101514.00;;;;9811567;29;20236;-81
2023/05/13 07:36:41;;;;;;;9.00;6.57;;;;;21.70;101518.00;;;;9800613;29;20781;-81
2023/05/13 07:41:50;;;;;;;10.82;7.20;;;;;21.70;101518.00;;;;9792603;29;20231;-79
2023/05/13 07:46:52;;;;;;;8.32;6.97;;;;;21.40;101518.00;;;;9811216;29;20952;-79
2023/05/13 07:51:53;;;;;;;10.45;7.25;;;;;21.20;101518.00;;;;9799841;29;20898;-81
2023/05/13 07:56:54;;;;;;;8.65;7.20;;;;;21.20;101520.00;;;;9824414;29;20231;-82
2023/05/13 08:01:56;;;;;;;8.20;7.15;;;;;21.30;101514.00;;;;9812267;29;21848;-80
2023/05/13 08:06:57;;;;;;;7.93;7.13;;;;;21.50;101524.00;;;;9798739;29;20257;-83
2023/05/13 08:12:01;;;;;;;8.50;7.38;;;;;21.30;101522.00;;;;9826835;29;20935;-78
2023/05/13 08:17:05;;;;;;;9.38;7.15;;;;;21.60;101514.00;;;;9792540;29;20246;-79
2023/05/13 08:22:06;;;;;;;8.90;7.97;;;;;21.60;101520.00;;;;9795022;29;20361;-81
2023/05/13 08:27:08;;;;;;;10.55;8.18;;;;;22.20;101524.00;;;;9806584;29;20549;-79
2023/05/13 08:32:09;;;;;;;11.10;7.63;;;;;22.40;101520.00;;;;9792579;29;21049;-79
2023/05/13 08:37:11;;;;;;;10.43;7.03;;;;;22.70;101515.00;;;;9808902;29;20231;-79
2023/05/13 08:42:17;;;;;;;10.73;8.30;;;;;22.60;101522.00;;;;9816277;29;20333;-79
2023/05/13 08:47:55;;;;;;;10.32;7.85;;;;;22.40;101521.00;;;;9795011;29;21922;-80
2023/05/13 08:52:59;;;;;;;8.38;7.50;;;;;22.60;101511.00;;;;9794779;29;20251;-82
2023/05/13 08:58:00;;;;;;;10.60;8.00;;;;;23.00;101528.00;;;;9790659;29;20242;-79
2023/05/13 09:03:01;;;;;;;9.93;7.55;;;;;23.60;101522.00;;;;9824668;29;20234;-81
2023/05/13 09:08:08;;;;;;;8.80;7.05;;;;;24.20;101516.00;;;;9812826;29;21510;-77
2023/05/13 09:13:11;;;;;;;7.97;7.18;;;;;24.40;101517.00;;;;9806497;29;20239;-78
2023/05/13 09:18:14;;;;;;;12.93;7.63;;;;;25.00;101521.00;;;;9795456;29;20503;-79
2023/05/13 09:23:22;;;;;;;8.68;7.22;;;;;25.30;101515.00;;;;9818630;29;20342;-82
2023/05/13 09:28:23;;;;;;;10.05;7.18;;;;;25.50;101519.00;;;;9798170;29;20229;-78
2023/05/13 09:33:28;;;;;;;8.70;7.70;;;;;25.60;101509.00;;;;9827408;29;20247;-80
2023/05/13 09:38:36;;;;;;;7.85;6.63;;;;;25.30;101510.00;;;;9813757;29;20224;-79
2023/05/13 09:43:38;;;;;;;8.98;7.30;;;;;25.30;101506.00;;;;9808417;29;20308;-79
2023/05/13 09:48:42;;;;;;;8.82;6.97;;;;;25.20;101500.00;;;;9809297;29;20573;-78
2023/05/13 09:53:46;;;;;;;7.55;6.75;;;;;24.80;101500.00;;;;9800115;29;22183;-80
2023/05/13 09:58:51;;;;;;;9.43;7.38;;;;;25.30;101506.00;;;;9811613;29;20965;-79
2023/05/13 10:03:59;;;;;;;9.68;6.45;;;;;26.20;101494.00;;;;9797540;29;21760;-82
2023/05/13 10:09:04;;;;;;;8.07;6.70;;;;;26.50;101490.00;;;;9799077;29;20598;-79
2023/05/13 10:14:06;;;;;;;8.15;6.68;;;;;26.40;101491.00;;;;9809190;29;20978;-81
2023/05/13 10:19:10;;;;;;;8.40;6.55;;;;;26.80;101495.00;;;;9797695;29;20362;-79
2023/05/13 10:24:13;;;;;;;7.35;6.65;;;;;26.30;101490.00;;;;9796793;29;20223;-79
2023/05/13 10:29:15;;;;;;;7.15;6.07;;;;;26.90;101486.00;;;;9824305;29;20224;-78
2023/05/13 10:34:17;;;;;;;8.00;5.97;;;;;27.80;101487.00;;;;9792942;29;20243;-78
2023/05/13 10:40:00;;;;;;;7.80;6.07;;;;;28.30;101487.00;;;;9810629;29;21303;-80
2023/05/13 10:45:02;;;;;;;11.15;6.20;;;;;27.40;101465.00;;;;9796682;29;20266;-79
2023/05/13 10:50:05;;;;;;;8.45;5.70;;;;;27.50;101477.00;;;;9786329;29;20247;-79
2023/05/13 10:55:14;;;;;;;6.43;5.60;;;;;27.80;101475.00;;;;9798058;29;20790;-79
2023/05/13 11:00:18;;;;;;;9.52;6.80;;;;;27.90;101470.00;;;;9815516;29;20227;-82
2023/05/13 11:05:20;;;;;;;7.80;6.35;;;;;28.60;101464.00;;;;9830605;29;20651;-79
2023/05/13 11:10:30;;;;;;;7.05;5.93;;;;;29.30;101458.00;;;;9792587;29;20310;-80
2023/05/13 11:15:43;;;;;;;7.88;5.15;;;;;29.70;101455.00;;;;9806932;29;20251;-80
2023/05/13 11:20:55;;;;;;;6.50;4.70;;;;;29.30;101451.00;;;;9807858;29;20752;-79
2023/05/13 11:26:15;;;;;;;6.70;4.75;;;;;29.80;101447.00;;;;9801698;29;20641;-79
2023/05/13 11:31:17;;;;;;;5.90;4.70;;;;;30.20;101446.00;;;;9788461;29;20227;-80
2023/05/13 11:36:19;;;;;;;6.15;4.28;;;;;30.20;101447.00;;;;9790104;29;20732;-79
2023/05/13 11:41:20;;;;;;;5.72;4.90;;;;;30.40;101443.00;;;;9790950;29;20227;-80
2023/05/13 11:46:23;;;;;;;9.50;4.45;;;;;30.80;101425.00;;;;9814037;29;20964;-80
2023/05/13 11:51:24;;;;;;;7.40;4.43;;;;;30.50;101434.00;;;;9806851;29;20239;-82
2023/05/13 11:56:27;;;;;;;5.60;4.45;;;;;28.40;101435.00;;;;9827923;29;20234;-80
2023/05/13 12:01:30;;;;;;;6.93;4.50;;;;;28.80;101421.00;;;;9796003;29;20259;-82
2023/05/13 12:06:32;;;;;;;6.32;4.43;;;;;29.20;101423.00;;;;9823445;29;21499;-82
2023/05/13 12:11:34;;;;;;;8.57;4.45;;;;;27.90;101414.00;;;;9815938;29;20338;-82
2023/05/13 12:16:35;;;;;;;5.47;3.70;;;;;29.00;101422.00;;;;9791219;29;21751;-80
2023/05/13 12:21:37;;;;;;;4.50;4.10;;;;;29.10;101400.00;;;;9810188;29;21475;-79
2023/05/13 12:26:38;;;;;;;8.50;4.40;;;;;30.20;101404.00;;;;9792649;29;20224;-80
2023/05/13 12:31:42;;;;;;;5.03;3.80;;;;;31.50;101395.00;;;;9795252;29;20970;-81
2023/05/13 12:36:43;;;;;;;5.50;3.88;;;;;31.30;101402.00;;;;9809677;29;21345;-82
2023/05/13 12:41:50;;;;;;;6.78;4.13;;;;;28.60;101405.00;;;;9812139;29;20320;-79
2023/05/13 12:46:53;;;;;;;5.55;3.47;;;;;29.20;101398.00;;;;9801703;29;20323;-81
2023/05/13 12:51:55;;;;;;;3.50;3.13;;;;;29.80;101389.00;;;;9815097;29;21019;-79
2023/05/13 12:56:57;;;;;;;3.72;3.35;;;;;30.20;101391.00;;;;9802066;29;20227;-79
2023/05/13 13:02:01;;;;;;;8.40;4.30;;;;;30.40;101391.00;;;;9801665;29;21529;-79
2023/05/13 13:07:03;;;;;;;4.80;3.90;;;;;30.60;101384.00;;;;9803367;29;20995;-78
2023/05/13 13:12:05;;;;;;;4.32;3.50;;;;;30.80;101395.00;;;;9806335;29;20358;-78
2023/05/13 13:17:06;;;;;;;8.82;3.50;;;;;30.70;101380.00;;;;9786655;29;20243;-78
2023/05/13 13:22:07;;;;;;;5.03;3.42;;;;;30.70;101381.00;;;;9804904;29;20227;-79
2023/05/13 13:27:10;;;;;;;7.38;3.38;;;;;29.50;101386.00;;;;9814059;29;20399;-84
2023/05/13 13:32:12;;;;;;;7.32;3.10;;;;;29.50;101378.00;;;;9815977;29;21833;-81
2023/05/13 13:37:13;;;;;;;5.65;3.33;;;;;29.70;101383.00;;;;9783119;29;20737;-80
2023/05/13 13:42:21;;;;;;;4.68;3.15;;;;;29.70;101381.00;;;;9813754;29;21305;-80
2023/05/13 13:47:27;;;;;;;4.38;3.05;;;;;29.90;101366.00;;;;9809348;29;20291;-78
2023/05/13 13:52:29;;;;;;;5.40;3.13;;;;;30.00;101373.00;;;;9807075;29;20293;-79
2023/05/13 13:57:31;;;;;;;5.13;2.95;;;;;29.80;101359.00;;;;9808420;29;20231;-77
2023/05/13 14:02:32;;;;;;;4.55;2.90;;;;;29.90;101357.00;;;;9791761;29;20250;-77
2023/05/13 14:07:35;;;;;;;6.40;3.00;;;;;30.30;101355.00;;;;9794221;29;22049;-79
2023/05/13 14:12:37;;;;;;;5.10;2.70;;;;;30.30;101355.00;;;;9796300;29;21827;-79
2023/05/13 14:17:38;;;;;;;4.53;2.90;;;;;30.70;101348.00;;;;9792581;29;20429;-79
2023/05/13 14:22:40;;;;;;;6.53;2.95;;;;;31.40;101334.00;;;;9811221;29;20284;-80
2023/05/13 14:27:41;;;;;;;5.25;2.70;;;;;31.00;101352.00;;;;9812945;29;20330;-78
2023/05/13 14:32:43;;;;;;;3.63;3.15;;;;;29.20;101351.00;;;;9792491;29;20247;-79
2023/05/13 14:37:46;;;;;;;6.15;2.97;;;;;28.90;101324.00;;;;9792630;29;20232;-80
2023/05/13 14:42:50;;;;;;;3.03;2.72;;;;;31.80;101323.00;;;;9781426;29;20311;-81
2023/05/13 14:47:52;;;;;;;6.00;2.60;;;;;33.20;101314.00;;;;9810259;29;20614;-79
2023/05/13 14:52:53;;;;;;;5.75;2.92;;;;;34.50;101319.00;;;;9806306;29;21261;-78
2023/05/13 14:57:55;;;;;;;5.65;3.25;;;;;35.30;101311.00;;;;9793883;29;20240;-78
2023/05/13 15:02:56;;;;;;;5.22;3.13;;;;;32.00;101333.00;;;;9810609;29;20215;-79
2023/05/13 15:07:59;;;;;;;4.85;3.65;;;;;33.20;101313.00;;;;9812658;29;20219;-79
2023/05/13 15:13:01;;;;;;;6.05;3.33;;;;;32.90;101314.00;;;;9796672;29;20239;-79
2023/05/13 15:18:02;;;;;;;4.30;3.92;;;;;32.60;101335.00;;;;9812536;29;20251;-79
2023/05/13 15:23:04;;;;;;;5.82;3.63;;;;;30.30;101320.00;;;;9818395;29;20733;-80
2023/05/13 15:28:05;;;;;;;5.85;3.92;;;;;30.70;101312.00;;;;9799628;29;21496;-80
2023/05/13 15:33:07;;;;;;;3.65;3.30;;;;;33.90;101303.00;;;;9813152;29;20243;-79
2023/05/13 15:38:09;;;;;;;6.63;3.38;;;;;33.80;101321.00;;;;9815646;29;21239;-78
2023/05/13 15:43:10;;;;;;;5.30;3.50;;;;;31.70;101333.00;;;;9811607;29;20419;-81
2023/05/13 15:48:12;;;;;;;6.20;3.75;;;;;27.90;101321.00;;;;9793585;29;20348;-79
2023/05/13 15:53:16;;;;;;;5.50;4.70;;;;;26.70;101315.00;;;;9820833;29;20266;-82
2023/05/13 15:58:18;;;;;;;8.00;4.03;;;;;25.70;101320.00;;;;9800787;29;20635;-79
2023/05/13 16:03:22;;;;;;;4.53;3.58;;;;;24.70;101315.00;;;;9817173;29;20687;-79
2023/05/13 16:08:23;;;;;;;5.70;3.85;;;;;23.80;101308.00;;;;9798952;29;20785;-79
2023/05/13 16:13:25;;;;;;;4.55;3.53;;;;;23.50;101316.00;;;;9795005;29;20243;-81
2023/05/13 16:18:29;;;;;;;5.95;3.85;;;;;23.00;101314.00;;;;9786938;29;20272;-80
2023/05/13 16:23:30;;;;;;;4.50;3.97;;;;;22.70;101316.00;;;;9816427;29;20220;-79
2023/05/13 16:28:32;;;;;;;4.75;4.35;;;;;22.80;101314.00;;;;9817205;29;20223;-76
2023/05/13 16:33:35;;;;;;;7.85;4.78;;;;;22.80;101305.00;;;;9800085;29;20249;-80
2023/05/13 16:38:40;;;;;;;7.10;3.83;;;;;22.80;101308.00;;;;9803098;29;20306;-78
2023/05/13 16:43:41;;;;;;;5.05;3.75;;;;;23.00;101313.00;;;;9801149;29;20461;-77
2023/05/13 16:48:45;;;;;;;5.78;4.43;;;;;22.80;101304.00;;;;9802863;29;20223;-79
2023/05/13 16:53:46;;;;;;;5.32;3.78;;;;;22.30;101289.00;;;;9784821;29;20414;-78
2023/05/13 16:58:50;;;;;;;7.60;4.85;;;;;22.50;101293.00;;;;9800337;29;20254;-79
2023/05/13 17:03:51;;;;;;;7.50;4.80;;;;;22.30;101296.00;;;;9788381;29;20313;-80
2023/05/13 17:08:58;;;;;;;7.72;5.05;;;;;21.90;101287.00;;;;9819285;29;20231;-80
2023/05/13 17:13:59;;;;;;;12.25;6.07;;;;;21.60;101287.00;;;;9790578;29;20618;-80
2023/05/13 17:19:01;;;;;;;7.80;5.93;;;;;21.10;101284.00;;;;9800719;29;20561;-78
2023/05/13 17:24:06;;;;;;;8.05;6.20;;;;;21.10;101281.00;;;;9799930;29;20223;-78
2023/05/13 17:29:07;;;;;;;9.73;7.78;;;;;21.30;101279.00;;;;9800220;29;20310;-79
2023/05/13 17:34:09;;;;;;;12.50;7.70;;;;;21.40;101281.00;;;;9799503;29;20267;-78
2023/05/13 17:39:10;;;;;;;11.25;7.63;;;;;21.10;101299.00;;;;9799012;29;20256;-79
2023/05/13 17:44:12;;;;;;;13.85;8.80;;;;;20.80;101324.00;;;;9801184;29;20226;-80
2023/05/13 17:49:13;;;;;;;18.42;10.98;;;;;20.50;101356.00;;;;9794254;29;21183;-79
2023/05/13 17:54:17;;;;;;;16.05;12.13;;;;;20.00;101338.00;;;;9825233;29;20789;-80
2023/05/13 17:59:19;;;;;;;16.77;11.75;;;;;19.80;101347.00;;;;9797002;29;20226;-79
2023/05/13 18:04:20;;;;;;;16.60;11.95;;;;;19.70;101348.00;;;;9762577;29;20224;-79
2023/05/13 18:09:22;;;;;;;18.60;11.73;;;;;19.60;101356.00;;;;9808707;29;20990;-80
2023/05/13 18:14:23;;;;;;;17.88;10.75;;;;;19.50;101363.00;;;;9788323;29;20251;-79
2023/05/13 18:19:24;;;;;;;16.70;11.25;;;;;19.00;101362.00;;;;9791490;29;20227;-79
2023/05/13 18:24:26;;;;;;;17.98;12.65;;;;;18.20;101346.00;;;;9773472;29;21438;-76
2023/05/13 18:29:28;;;;;;;20.92;14.35;;;;;17.80;101355.00;;;;9803717;29;20238;-80
2023/05/13 18:34:30;;;;;;;23.08;15.35;;;;;17.50;101372.00;;;;9799180;29;20253;-79
2023/05/13 18:39:33;;;;;;;23.55;16.65;;;;;17.40;101371.00;;;;9807949;29;20675;-76
2023/05/13 18:44:34;;;;;;;25.00;16.10;;;;;17.30;101387.00;;;;9812152;29;20720;-79
2023/05/13 18:49:36;;;;;;;21.55;15.57;;;;;17.20;101391.00;;;;9825537;29;20231;-77
2023/05/13 18:54:37;;;;;;;27.67;16.38;;;;;17.10;101410.00;;;;9782318;29;20289;-77
2023/05/13 18:59:42;;;;;;;22.75;16.38;;;;;16.90;101417.00;;;;9813757;29;20602;-77
2023/05/13 19:04:43;;;;;;;27.35;16.45;;;;;16.70;101426.00;;;;9792379;29;20224;-79
2023/05/13 19:09:45;;;;;;;26.23;16.23;;;;;16.50;101431.00;;;;9816250;29;20251;-78
2023/05/13 19:14:46;;;;;;;21.67;15.75;;;;;16.20;101440.00;;;;9788779;29;20254;-79
2023/05/13 19:19:52;;;;;;;22.08;17.23;;;;;16.00;101440.00;;;;9794747;29;20337;-80
2023/05/13 19:24:54;;;;;;;24.90;16.45;;;;;15.80;101447.00;;;;9810143;29;20288;-79
2023/05/13 19:29:55;;;;;;;27.80;18.90;;;;;15.70;101462.00;;;;9795871;29;20323;-80
2023/05/13 19:35:02;;;;;;;25.58;17.77;;;;;15.60;101492.00;;;;9810431;29;20243;-80
2023/05/13 19:40:04;;;;;;;31.58;18.05;;;;;15.50;101504.00;;;;9796091;29;20255;-78
2023/05/13 19:45:06;;;;;;;27.20;18.88;;;;;15.40;101512.00;;;;9794699;29;20627;-79
2023/05/13 19:50:11;;;;;;;30.85;18.75;;;;;15.30;101543.00;;;;9800641;29;20730;-80
2023/05/13 19:55:13;;;;;;;26.08;18.90;;;;;15.20;101537.00;;;;9804343;29;20236;-79
2023/05/13 20:00:19;;;;;;;30.45;20.45;;;;;15.10;101553.00;;;;9816315;29;21075;-81
2023/05/13 20:05:20;;;;;;;26.95;20.60;;;;;14.90;101557.00;;;;9781403;29;20334;-79
2023/05/13 20:10:22;;;;;;;28.80;21.75;;;;;14.80;101557.00;;;;9803427;29;20265;-82
2023/05/13 20:15:24;;;;;;;35.67;22.13;;;;;14.70;101549.00;;;;9817208;29;20244;-80
2023/05/13 20:20:25;;;;;;;34.10;22.60;;;;;14.60;101560.00;;;;9814342;29;20619;-82
2023/05/13 20:25:27;;;;;;;38.47;22.85;;;;;14.40;101546.00;;;;9785041;29;20223;-79
2023/05/13 20:30:28;;;;;;;34.47;22.85;;;;;14.30;101554.00;;;;9802720;29;20231;-79
2023/05/13 20:35:29;;;;;;;35.40;23.43;;;;;14.20;101549.00;;;;9807750;29;20247;-80
2023/05/13 20:40:31;;;;;;;32.93;25.60;;;;;14.10;101555.00;;;;9813952;29;20232;-80
2023/05/13 20:45:35;;;;;;;35.70;24.77;;;;;14.00;101547.00;;;;9795306;29;20227;-80
2023/05/13 20:50:36;;;;;;;36.77;24.53;;;;;14.00;101537.00;;;;9809293;29;20244;-78
2023/05/13 20:55:38;;;;;;;32.67;24.40;;;;;13.80;101539.00;;;;9799260;29;20231;-80
2023/05/13 21:00:39;;;;;;;38.80;24.80;;;;;13.70;101536.00;;;;9810365;29;20228;-80
2023/05/13 21:05:40;;;;;;;39.73;26.47;;;;;13.60;101536.00;;;;9792387;29;20710;-79
2023/05/13 21:10:42;;;;;;;43.47;29.37;;;;;13.50;101531.00;;;;9778732;29;20952;-79
2023/05/13 21:15:43;;;;;;;42.50;27.50;;;;;13.40;101534.00;;;;9791832;29;20344;-79
2023/05/13 21:20:45;;;;;;;46.83;29.23;;;;;13.30;101539.00;;;;9780724;29;20231;-82
2023/05/13 21:25:46;;;;;;;42.83;30.13;;;;;13.20;101538.00;;;;9784863;29;20232;-78
2023/05/13 21:30:48;;;;;;;45.20;29.83;;;;;13.10;101541.00;;;;9800861;29;20291;-81
2023/05/13 21:35:50;;;;;;;47.10;32.30;;;;;13.00;101537.00;;;;9784673;29;20238;-81
2023/05/13 21:40:51;;;;;;;49.50;32.60;;;;;13.00;101533.00;;;;9812442;29;21455;-78
2023/05/13 21:45:53;;;;;;;46.67;29.60;;;;;12.80;101530.00;;;;9787907;29;20220;-78
2023/05/13 21:50:54;;;;;;;41.93;28.03;;;;;12.70;101524.00;;;;9810027;29;20231;-81
2023/05/13 21:55:57;;;;;;;47.40;30.70;;;;;12.60;101521.00;;;;9787435;29;21014;-78
2023/05/13 22:00:59;;;;;;;42.17;27.07;;;;;12.50;101518.00;;;;9783294;29;20256;-78
2023/05/13 22:06:01;;;;;;;46.13;32.30;;;;;12.40;101512.00;;;;9794539;29;20235;-77
2023/05/13 22:11:03;;;;;;;52.03;31.63;;;;;12.30;101515.00;;;;9792248;29;20292;-78
2023/05/13 22:16:04;;;;;;;51.57;34.23;;;;;12.30;101507.00;;;;9818513;29;20269;-80
2023/05/13 22:21:05;;;;;;;54.40;36.87;;;;;12.20;101510.00;;;;9800996;29;20688;-80
2023/05/13 22:26:07;;;;;;;53.30;33.63;;;;;12.10;101500.00;;;;9805831;29;20231;-79
2023/05/13 22:31:08;;;;;;;58.77;35.63;;;;;12.10;101483.00;;;;9789612;29;20943;-78
2023/05/13 22:36:10;;;;;;;57.30;36.30;;;;;12.00;101496.00;;;;9774446;29;20618;-77
2023/05/13 22:41:12;;;;;;;61.23;37.73;;;;;12.00;101491.00;;;;9773794;29;20230;-78
2023/05/13 22:46:13;;;;;;;57.37;34.87;;;;;11.90;101480.00;;;;9791467;29;20924;-77
2023/05/13 22:51:14;;;;;;;62.00;34.97;;;;;11.80;101482.00;;;;9806325;29;20270;-77
2023/05/13 22:56:16;;;;;;;58.60;36.73;;;;;11.80;101484.00;;;;9802241;29;20270;-78
2023/05/13 23:01:17;;;;;;;65.63;39.17;;;;;11.70;101479.00;;;;9789249;29;20321;-78
2023/05/13 23:06:18;;;;;;;66.60;38.63;;;;;11.70;101479.00;;;;9768427;29;21119;-77
2023/05/13 23:11:20;;;;;;;61.33;38.77;;;;;11.70;101480.00;;;;9788700;29;20223;-78
2023/05/13 23:16:21;;;;;;;64.93;39.13;;;;;11.60;101484.00;;;;9782820;29;21726;-78
2023/05/13 23:21:23;;;;;;;70.00;41.43;;;;;11.60;101485.00;;;;9811636;29;20843;-76
2023/05/13 23:26:24;;;;;;;65.90;40.83;;;;;11.60;101485.00;;;;9783996;29;20234;-77
2023/05/13 23:31:25;;;;;;;71.70;43.97;;;;;11.50;101483.00;;;;9797226;29;20251;-78
2023/05/13 23:36:27;;;;;;;74.37;43.07;;;;;11.50;101459.00;;;;9811387;29;20239;-76
2023/05/13 23:41:28;;;;;;;69.40;41.73;;;;;11.50;101467.00;;;;9798975;29;20933;-79
2023/05/13 23:46:30;;;;;;;74.27;45.40;;;;;11.40;101453.00;;;;9799495;29;20227;-79
2023/05/13 23:51:32;;;;;;;70.90;44.30;;;;;11.50;101460.00;;;;9814565;29;20235;-78
2023/05/13 23:56:33;;;;;;;84.17;47.50;;;;;11.50;101446.00;;;;9796842;29;20334;-76
